createdAt,value
2018-06-28T00:00:35.220Z,21.73
2018-06-28T00:03:03.892Z,22.57
2018-06-28T00:05:32.614Z,22.17
2018-06-28T00:08:01.308Z,20.60
2018-06-28T00:10:30.070Z,20.17
2018-06-28T00:12:58.795Z,22.00
2018-06-28T00:15:27.581Z,22.10
2018-06-28T00:17:56.323Z,22.07
2018-06-28T00:20:25.085Z,23.77
2018-06-28T00:22:53.773Z,23.33
2018-06-28T00:25:22.529Z,22.90
2018-06-28T00:27:51.199Z,22.77
2018-06-28T00:30:19.913Z,24.47
2018-06-28T00:32:48.253Z,21.73
2018-06-28T00:35:16.874Z,25.37
2018-06-28T00:37:45.560Z,24.80
2018-06-28T00:40:14.182Z,22.87
2018-06-28T00:42:42.870Z,23.13
2018-06-28T00:45:11.722Z,22.50
2018-06-28T00:47:40.542Z,22.57
2018-06-28T00:50:09.212Z,25.43
2018-06-28T00:52:37.942Z,24.87
2018-06-28T00:55:06.656Z,23.40
2018-06-28T00:57:35.412Z,25.60
2018-06-28T01:00:04.315Z,19.67
2018-06-28T01:02:33.129Z,27.43
2018-06-28T01:05:01.860Z,26.13
2018-06-28T01:07:30.569Z,24.93
2018-06-28T01:09:59.503Z,21.63
2018-06-28T01:12:28.229Z,26.57
2018-06-28T01:14:56.971Z,25.63
2018-06-28T01:17:25.708Z,28.47
2018-06-28T01:19:54.398Z,22.67
2018-06-28T01:22:23.084Z,22.40
2018-06-28T01:24:52.433Z,29.63
2018-06-28T01:27:21.082Z,22.70
2018-06-28T01:29:49.864Z,25.90
2018-06-28T01:32:18.564Z,23.03
2018-06-28T01:34:47.272Z,26.50
2018-06-28T01:37:16.096Z,25.20
2018-06-28T01:39:44.768Z,27.80
2018-06-28T01:42:56.982Z,25.90
2018-06-28T01:45:26.047Z,26.17
2018-06-28T01:47:54.855Z,24.70
2018-06-28T01:50:23.773Z,25.40
2018-06-28T01:52:52.599Z,26.57
2018-06-28T01:55:21.258Z,23.23
2018-06-28T01:57:49.943Z,29.73
2018-06-28T02:00:18.653Z,24.43
2018-06-28T02:02:47.300Z,31.07
2018-06-28T02:05:16.004Z,26.13
2018-06-28T02:07:44.720Z,28.07
2018-06-28T02:10:13.468Z,28.87
2018-06-28T02:12:42.255Z,23.70
2018-06-28T02:15:10.980Z,27.03
2018-06-28T02:17:39.728Z,26.97
2018-06-28T02:20:08.463Z,26.57
2018-06-28T02:22:37.152Z,30.40
2018-06-28T02:25:05.965Z,27.37
2018-06-28T02:27:34.624Z,26.80
2018-06-28T02:30:03.316Z,29.50
2018-06-28T02:32:32.028Z,29.93
2018-06-28T02:35:00.835Z,30.80
2018-06-28T02:37:29.539Z,31.37
2018-06-28T02:39:58.217Z,33.00
2018-06-28T02:42:26.946Z,32.50
2018-06-28T02:44:55.640Z,29.63
2018-06-28T02:47:24.422Z,30.40
2018-06-28T02:49:53.175Z,29.33
2018-06-28T02:52:21.958Z,27.37
2018-06-28T02:54:50.655Z,30.70
2018-06-28T02:57:19.340Z,29.87
2018-06-28T02:59:48.080Z,29.23
2018-06-28T03:02:16.814Z,29.73
2018-06-28T03:04:45.531Z,32.00
2018-06-28T03:07:14.287Z,32.13
2018-06-28T03:09:43.035Z,29.20
2018-06-28T03:12:12.519Z,32.13
2018-06-28T03:14:41.199Z,30.47
2018-06-28T03:17:10.137Z,31.33
2018-06-28T03:19:38.833Z,37.70
2018-06-28T03:22:07.643Z,34.27
2018-06-28T03:24:36.369Z,31.47
2018-06-28T03:27:05.074Z,27.17
2018-06-28T03:29:33.792Z,32.83
2018-06-28T03:32:02.547Z,31.87
2018-06-28T03:34:31.208Z,28.63
2018-06-28T03:36:59.926Z,31.43
2018-06-28T03:39:28.617Z,31.10
2018-06-28T03:41:57.344Z,33.53
2018-06-28T03:44:26.089Z,30.53
2018-06-28T03:46:54.910Z,31.57
2018-06-28T03:49:23.604Z,33.47
2018-06-28T03:51:52.359Z,33.07
2018-06-28T03:54:21.061Z,29.03
2018-06-28T03:56:49.883Z,33.47
2018-06-28T03:59:18.527Z,34.87
2018-06-28T04:01:47.115Z,32.93
2018-06-28T04:04:15.825Z,28.73
2018-06-28T04:06:44.537Z,31.53
2018-06-28T04:09:13.252Z,29.97
2018-06-28T04:11:41.929Z,36.13
2018-06-28T04:14:10.628Z,32.23
2018-06-28T04:16:39.308Z,29.53
2018-06-28T04:19:08.024Z,34.63
2018-06-28T04:21:37.390Z,29.87
2018-06-28T04:24:06.112Z,30.17
2018-06-28T04:26:34.791Z,31.43
2018-06-28T04:29:03.442Z,33.30
2018-06-28T04:31:32.094Z,31.27
2018-06-28T04:34:00.750Z,30.03
2018-06-28T04:36:29.527Z,29.63
2018-06-28T04:38:58.303Z,31.57
2018-06-28T04:41:27.001Z,33.70
2018-06-28T04:43:55.669Z,32.37
2018-06-28T04:46:24.393Z,31.73
2018-06-28T04:48:53.093Z,30.93
2018-06-28T04:51:21.807Z,29.93
2018-06-28T04:53:50.587Z,32.87
2018-06-28T04:56:19.318Z,32.43
2018-06-28T04:58:48.018Z,27.70
2018-06-28T05:01:16.775Z,31.40
2018-06-28T05:03:45.692Z,28.23
2018-06-28T05:06:14.428Z,30.20
2018-06-28T05:08:43.190Z,24.60
2018-06-28T05:11:11.886Z,27.97
2018-06-28T05:13:40.822Z,28.37
2018-06-28T05:16:09.676Z,26.10
2018-06-28T05:18:38.701Z,23.87
2018-06-28T05:21:07.350Z,25.57
2018-06-28T05:23:36.081Z,26.00
2018-06-28T05:26:05.058Z,26.37
2018-06-28T05:28:33.761Z,25.97
2018-06-28T05:31:02.430Z,23.43
2018-06-28T05:33:31.167Z,23.37
2018-06-28T05:35:59.820Z,23.17
2018-06-28T05:38:28.519Z,22.70
2018-06-28T05:40:58.174Z,25.60
2018-06-28T05:43:26.612Z,23.70
2018-06-28T05:45:55.528Z,22.80
2018-06-28T05:48:24.220Z,21.90
2018-06-28T05:50:52.870Z,22.43
2018-06-28T05:53:21.568Z,26.73
2018-06-28T05:55:50.230Z,22.93
2018-06-28T05:58:19.033Z,23.07
2018-06-28T06:00:47.767Z,20.90
2018-06-28T06:03:16.576Z,21.30
2018-06-28T06:05:46.037Z,20.87
2018-06-28T06:08:15.105Z,20.77
2018-06-28T06:10:44.307Z,19.97
2018-06-28T06:13:13.800Z,17.63
2018-06-28T06:15:42.493Z,20.07
2018-06-28T06:18:10.769Z,22.60
2018-06-28T06:20:39.426Z,19.87
2018-06-28T06:23:08.100Z,20.67
2018-06-28T06:25:36.826Z,21.40
2018-06-28T06:28:05.462Z,21.73
2018-06-28T06:30:35.031Z,17.27
2018-06-28T06:33:03.709Z,19.23
2018-06-28T06:35:32.408Z,17.73
2018-06-28T06:38:01.072Z,18.20
2018-06-28T06:40:29.769Z,15.03
2018-06-28T06:42:58.577Z,17.03
2018-06-28T06:45:26.946Z,17.03
2018-06-28T06:47:55.607Z,15.33
2018-06-28T06:50:24.371Z,14.90
2018-06-28T06:52:53.115Z,14.60
2018-06-28T06:55:21.837Z,14.77
2018-06-28T06:57:50.553Z,16.47
2018-06-28T07:00:19.447Z,16.47
2018-06-28T07:02:48.209Z,16.50
2018-06-28T07:05:16.941Z,14.43
2018-06-28T07:07:45.643Z,15.63
2018-06-28T07:10:14.420Z,14.33
2018-06-28T07:12:42.783Z,18.67
2018-06-28T07:15:11.494Z,13.87
2018-06-28T07:17:40.202Z,14.27
2018-06-28T07:20:08.906Z,11.90
2018-06-28T07:22:37.622Z,15.67
2018-06-28T07:25:06.412Z,13.70
2018-06-28T07:27:35.262Z,16.13
2018-06-28T07:30:04.865Z,15.27
2018-06-28T07:32:33.698Z,12.23
2018-06-28T07:35:02.431Z,14.40
2018-06-28T07:37:31.129Z,13.77
2018-06-28T07:39:59.805Z,12.60
2018-06-28T07:42:28.528Z,12.83
2018-06-28T07:44:57.352Z,13.03
2018-06-28T07:47:26.118Z,15.53
2018-06-28T07:49:54.868Z,11.90
2018-06-28T07:52:23.284Z,16.43
2018-06-28T07:54:51.996Z,17.10
2018-06-28T07:57:20.762Z,13.67
2018-06-28T07:59:49.429Z,12.37
2018-06-28T08:02:18.330Z,12.57
2018-06-28T08:04:47.079Z,10.90
2018-06-28T08:07:15.787Z,9.80
2018-06-28T08:09:44.470Z,12.07
2018-06-28T08:12:13.255Z,10.67
2018-06-28T08:14:42.116Z,7.70
2018-06-28T08:17:10.835Z,12.17
2018-06-28T08:19:40.385Z,8.43
2018-06-28T08:22:09.129Z,11.90
2018-06-28T08:24:37.867Z,9.60
2018-06-28T08:27:06.625Z,10.50
2018-06-28T08:29:35.379Z,7.97
2018-06-28T08:32:04.135Z,9.80
2018-06-28T08:34:32.830Z,7.20
2018-06-28T08:37:01.609Z,6.40
2018-06-28T08:39:29.936Z,8.50
2018-06-28T08:41:58.701Z,13.07
2018-06-28T08:44:27.498Z,8.23
2018-06-28T08:46:57.246Z,7.47
2018-06-28T08:49:25.934Z,8.23
2018-06-28T08:51:54.620Z,7.90
2018-06-28T08:54:23.298Z,5.93
2018-06-28T08:56:52.002Z,7.10
2018-06-28T08:59:20.704Z,6.23
2018-06-28T09:01:49.436Z,6.13
2018-06-28T09:04:18.193Z,7.63
2018-06-28T09:06:46.944Z,6.13
2018-06-28T09:09:15.657Z,5.03
2018-06-28T09:11:44.363Z,8.10
2018-06-28T09:14:13.365Z,7.20
2018-06-28T09:16:42.238Z,9.67
2018-06-28T09:19:10.961Z,8.60
2018-06-28T09:21:39.665Z,7.63
2018-06-28T09:24:08.406Z,6.47
2018-06-28T09:26:37.181Z,5.10
2018-06-28T09:29:06.012Z,6.10
2018-06-28T09:31:35.183Z,7.37
2018-06-28T09:34:04.026Z,7.10
2018-06-28T09:36:33.334Z,6.37
2018-06-28T09:39:02.106Z,9.67
2018-06-28T09:41:30.746Z,7.80
2018-06-28T09:43:59.509Z,10.53
2018-06-28T09:46:29.311Z,8.20
2018-06-28T09:48:58.782Z,10.13
2018-06-28T09:51:27.514Z,7.47
2018-06-28T09:53:56.931Z,6.80
2018-06-28T09:56:25.709Z,7.23
2018-06-28T09:58:54.629Z,7.23
2018-06-28T10:01:23.398Z,6.80
2018-06-28T10:03:52.389Z,6.03
2018-06-28T10:06:22.493Z,7.13
2018-06-28T10:08:51.354Z,7.07
2018-06-28T10:11:22.282Z,7.40
2018-06-28T10:13:51.712Z,7.13
2018-06-28T10:16:20.447Z,8.53
2018-06-28T10:18:49.560Z,7.00
2018-06-28T10:21:19.118Z,5.97
2018-06-28T10:23:48.080Z,6.90
2018-06-28T10:26:17.556Z,6.73
2018-06-28T10:28:46.302Z,7.43
2018-06-28T10:31:14.981Z,6.37
2018-06-28T10:33:44.700Z,6.13
2018-06-28T10:36:14.488Z,7.07
2018-06-28T10:38:43.964Z,7.00
2018-06-28T10:41:12.633Z,7.47
2018-06-28T10:43:41.562Z,6.80
2018-06-28T10:46:10.347Z,7.40
2018-06-28T10:48:39.038Z,7.33
2018-06-28T10:51:07.784Z,5.50
2018-06-28T10:53:36.523Z,7.40
2018-06-28T10:56:05.488Z,5.80
2018-06-28T10:58:34.207Z,5.83
2018-06-28T11:01:02.957Z,5.23
2018-06-28T11:03:31.808Z,5.83
2018-06-28T11:06:03.206Z,5.80
2018-06-28T11:08:31.975Z,5.47
2018-06-28T11:11:00.905Z,6.47
2018-06-28T11:13:29.535Z,4.57
2018-06-28T11:15:58.393Z,7.93
2018-06-28T11:18:27.115Z,7.10
2018-06-28T11:20:55.893Z,5.87
2018-06-28T11:23:25.751Z,4.20
2018-06-28T11:25:54.533Z,5.43
2018-06-28T11:28:23.256Z,4.73
2018-06-28T11:30:51.992Z,4.63
2018-06-28T11:33:20.658Z,4.03
2018-06-28T11:35:49.357Z,5.20
2018-06-28T11:38:18.030Z,4.47
2018-06-28T11:40:46.698Z,5.93
2018-06-28T11:43:15.400Z,6.20
2018-06-28T11:45:44.083Z,4.90
2018-06-28T11:48:13.386Z,5.17
2018-06-28T11:50:42.043Z,4.47
2018-06-28T11:53:11.696Z,3.90
2018-06-28T11:55:40.346Z,7.37
2018-06-28T11:58:09.049Z,5.30
2018-06-28T12:00:37.742Z,4.57
2018-06-28T12:03:06.416Z,4.83
2018-06-28T12:05:35.138Z,7.40
2018-06-28T12:08:03.839Z,6.40
2018-06-28T12:10:32.507Z,4.23
2018-06-28T12:13:02.039Z,4.73
2018-06-28T12:15:30.601Z,5.63
2018-06-28T12:17:59.326Z,5.03
2018-06-28T12:20:28.048Z,5.13
2018-06-28T12:22:56.390Z,6.03
2018-06-28T12:25:25.026Z,3.43
2018-06-28T12:27:53.663Z,3.77
2018-06-28T12:30:22.318Z,4.83
2018-06-28T12:32:51.046Z,3.67
2018-06-28T12:35:19.763Z,4.03
2018-06-28T12:37:48.588Z,3.40
2018-06-28T12:40:17.278Z,3.80
2018-06-28T12:42:45.884Z,4.73
2018-06-28T12:45:16.444Z,4.57
2018-06-28T12:47:58.176Z,6.23
2018-06-28T12:50:27.036Z,3.30
2018-06-28T12:52:58.751Z,3.07
2018-06-28T12:55:29.674Z,5.17
2018-06-28T12:57:58.419Z,3.50
2018-06-28T13:00:27.149Z,3.57
2018-06-28T13:02:55.918Z,3.53
2018-06-28T13:05:25.591Z,3.40
2018-06-28T13:07:54.350Z,5.83
2018-06-28T13:10:23.149Z,5.03
2018-06-28T13:12:51.851Z,4.00
2018-06-28T13:15:20.574Z,3.30
2018-06-28T13:17:49.258Z,4.20
2018-06-28T13:20:17.911Z,4.30
2018-06-28T13:22:46.581Z,5.60
2018-06-28T13:25:15.333Z,4.87
2018-06-28T13:27:44.056Z,4.07
2018-06-28T13:30:12.562Z,2.90
2018-06-28T13:32:55.540Z,5.03
2018-06-28T13:35:26.953Z,3.63
2018-06-28T13:37:56.587Z,4.87
2018-06-28T13:40:27.215Z,4.03
2018-06-28T13:42:58.418Z,4.23
2018-06-28T13:45:33.018Z,4.60
2018-06-28T13:48:01.942Z,4.10
2018-06-28T13:50:30.820Z,3.77
2018-06-28T13:52:59.950Z,2.80
2018-06-28T13:55:28.750Z,5.43
2018-06-28T13:58:00.380Z,6.10
2018-06-28T14:00:29.279Z,4.73
2018-06-28T14:02:58.031Z,4.30
2018-06-28T14:05:27.744Z,3.57
2018-06-28T14:07:57.220Z,3.57
2018-06-28T14:10:26.418Z,4.13
2018-06-28T14:12:55.279Z,4.73
2018-06-28T14:15:24.134Z,3.27
2018-06-28T14:17:53.000Z,4.87
2018-06-28T14:20:21.796Z,2.73
2018-06-28T14:22:50.645Z,3.10
2018-06-28T14:25:19.401Z,2.83
2018-06-28T14:27:48.197Z,2.90
2018-06-28T14:30:16.939Z,3.30
2018-06-28T14:32:45.701Z,3.03
2018-06-28T14:35:14.597Z,3.10
2018-06-28T14:37:43.532Z,4.30
2018-06-28T14:40:12.342Z,2.63
2018-06-28T14:42:41.054Z,3.73
2018-06-28T14:45:09.845Z,3.53
2018-06-28T14:47:38.530Z,3.00
2018-06-28T14:50:07.247Z,5.10
2018-06-28T14:52:35.961Z,3.70
2018-06-28T14:55:05.331Z,2.60
2018-06-28T14:57:34.005Z,5.43
2018-06-28T15:00:02.777Z,2.83
2018-06-28T15:02:31.500Z,4.23
2018-06-28T15:05:00.361Z,3.07
2018-06-28T15:07:29.099Z,3.10
2018-06-28T15:09:57.901Z,2.63
2018-06-28T15:12:26.710Z,4.10
2018-06-28T15:14:55.445Z,2.10
2018-06-28T15:17:24.137Z,2.83
2018-06-28T15:19:52.838Z,3.47
2018-06-28T15:22:21.528Z,5.27
2018-06-28T15:24:50.222Z,2.33
2018-06-28T15:27:18.845Z,5.43
2018-06-28T15:29:47.509Z,3.10
2018-06-28T15:32:15.886Z,2.40
2018-06-28T15:34:44.598Z,3.20
2018-06-28T15:37:13.333Z,4.20
2018-06-28T15:39:42.049Z,7.97
2018-06-28T15:42:10.966Z,2.57
2018-06-28T15:44:39.779Z,2.90
2018-06-28T15:47:09.122Z,3.27
2018-06-28T15:49:37.860Z,4.50
2018-06-28T15:52:07.413Z,3.47
2018-06-28T15:54:36.241Z,4.13
2018-06-28T15:57:04.961Z,5.77
2018-06-28T15:59:53.679Z,2.60
2018-06-28T16:02:22.721Z,3.33
2018-06-28T16:04:51.429Z,4.70
2018-06-28T16:07:20.236Z,2.30
2018-06-28T16:09:49.253Z,2.47
2018-06-28T16:12:18.064Z,3.17
2018-06-28T16:14:46.818Z,2.53
2018-06-28T16:17:15.644Z,4.27
2018-06-28T16:19:44.348Z,4.07
2018-06-28T16:22:13.047Z,2.67
2018-06-28T16:24:41.767Z,3.43
2018-06-28T16:27:10.608Z,4.23
2018-06-28T16:29:39.374Z,4.97
2018-06-28T16:32:08.117Z,2.30
2018-06-28T16:34:36.895Z,5.00
2018-06-28T16:37:05.628Z,4.53
2018-06-28T16:39:34.315Z,3.57
2018-06-28T16:42:03.055Z,4.07
2018-06-28T16:44:31.885Z,3.70
2018-06-28T16:47:00.563Z,3.20
2018-06-28T16:49:29.303Z,4.57
2018-06-28T16:51:58.026Z,3.13
2018-06-28T16:54:26.704Z,4.33
2018-06-28T16:56:55.454Z,5.43
2018-06-28T16:59:24.237Z,5.23
2018-06-28T17:01:52.959Z,4.60
2018-06-28T17:04:21.736Z,4.70
2018-06-28T17:06:50.467Z,2.77
2018-06-28T17:09:19.226Z,3.60
2018-06-28T17:11:47.987Z,2.53
2018-06-28T17:14:16.763Z,3.00
2018-06-28T17:16:45.518Z,2.93
2018-06-28T17:19:14.267Z,4.17
2018-06-28T17:21:43.057Z,3.23
2018-06-28T17:24:11.754Z,4.70
2018-06-28T17:26:40.611Z,3.50
2018-06-28T17:29:09.405Z,5.27
2018-06-28T17:31:38.107Z,3.73
2018-06-28T17:34:06.767Z,4.07
2018-06-28T17:36:35.492Z,5.93
2018-06-28T17:39:06.291Z,3.80
2018-06-28T17:41:35.106Z,5.37
2018-06-28T17:44:03.827Z,3.43
2018-06-28T17:46:32.591Z,3.43
2018-06-28T17:49:01.398Z,4.27
2018-06-28T17:51:30.089Z,4.77
2018-06-28T17:53:58.898Z,5.93
2018-06-28T17:56:27.605Z,3.33
2018-06-28T17:58:56.441Z,3.97
2018-06-28T18:01:25.191Z,4.63
2018-06-28T18:03:53.989Z,3.20
2018-06-28T18:06:22.710Z,4.63
2018-06-28T18:08:51.475Z,3.87
2018-06-28T18:11:20.202Z,5.10
2018-06-28T18:13:48.919Z,3.60
2018-06-28T18:16:17.658Z,5.30
2018-06-28T18:18:46.497Z,4.97
2018-06-28T18:21:15.212Z,5.33
2018-06-28T18:23:44.006Z,3.87
2018-06-28T18:26:12.760Z,4.17
2018-06-28T18:28:41.512Z,4.80
2018-06-28T18:31:10.246Z,3.50
2018-06-28T18:33:39.044Z,4.23
2018-06-28T18:36:07.816Z,3.53
2018-06-28T18:38:36.530Z,3.53
2018-06-28T18:41:05.295Z,3.80
2018-06-28T18:43:33.667Z,4.50
2018-06-28T18:46:02.407Z,4.57
2018-06-28T18:48:31.156Z,4.20
2018-06-28T18:50:59.987Z,3.40
2018-06-28T18:53:28.747Z,4.97
2018-06-28T18:55:57.670Z,4.20
2018-06-28T18:58:26.419Z,4.97
2018-06-28T19:00:55.127Z,5.60
2018-06-28T19:03:23.913Z,4.63
2018-06-28T19:05:53.422Z,3.60
2018-06-28T19:08:22.183Z,4.20
2018-06-28T19:10:56.229Z,3.90
2018-06-28T19:13:26.126Z,6.30
2018-06-28T19:16:00.218Z,2.70
2018-06-28T19:18:28.992Z,3.57
2018-06-28T19:21:02.946Z,3.97
2018-06-28T19:23:36.972Z,4.33
2018-06-28T19:26:05.894Z,6.10
2018-06-28T19:28:35.274Z,3.90
2018-06-28T19:31:09.590Z,4.73
2018-06-28T19:33:48.788Z,3.40
2018-06-28T19:36:17.637Z,3.73
2018-06-28T19:38:51.682Z,4.57
2018-06-28T19:41:25.809Z,3.40
2018-06-28T19:43:54.701Z,4.33
2018-06-28T19:46:23.441Z,5.10
2018-06-28T19:48:52.224Z,4.43
2018-06-28T19:51:26.368Z,3.80
2018-06-28T19:53:55.230Z,4.73
2018-06-28T19:56:23.990Z,5.57
2018-06-28T19:58:52.747Z,4.37
2018-06-28T20:01:26.857Z,4.87
2018-06-28T20:04:02.142Z,4.83
2018-06-28T20:06:30.956Z,5.30
2018-06-28T20:08:59.652Z,4.77
2018-06-28T20:11:28.929Z,4.77
2018-06-28T20:14:03.958Z,5.43
2018-06-28T20:16:38.861Z,4.70
2018-06-28T20:19:12.917Z,5.13
2018-06-28T20:21:41.966Z,3.47
2018-06-28T20:24:10.742Z,3.97
2018-06-28T20:26:44.925Z,3.57
2018-06-28T20:29:21.703Z,4.80
2018-06-28T20:31:55.712Z,3.37
2018-06-28T20:34:24.566Z,3.97
2018-06-28T20:36:54.690Z,3.77
2018-06-28T20:39:23.474Z,4.40
2018-06-28T20:41:52.313Z,5.97
2018-06-28T20:44:21.010Z,2.67
2018-06-28T20:46:49.724Z,4.33
2018-06-28T20:49:18.487Z,3.43
2018-06-28T20:51:47.187Z,2.23
2018-06-28T20:54:15.876Z,2.73
2018-06-28T20:56:44.707Z,3.40
2018-06-28T20:59:13.529Z,3.23
2018-06-28T21:01:42.257Z,2.67
2018-06-28T21:04:11.068Z,2.80
2018-06-28T21:06:40.020Z,4.07
2018-06-28T21:09:08.985Z,1.93
2018-06-28T21:11:42.492Z,5.50
2018-06-28T21:14:11.884Z,2.03
2018-06-28T21:16:40.810Z,3.00
2018-06-28T21:19:11.407Z,2.00
2018-06-28T21:21:40.630Z,2.13
2018-06-28T21:24:10.086Z,2.23
2018-06-28T21:26:38.957Z,4.57
2018-06-28T21:29:07.846Z,3.10
2018-06-28T21:31:37.834Z,4.47
2018-06-28T21:34:07.221Z,3.80
2018-06-28T21:36:36.737Z,2.33
2018-06-28T21:39:08.423Z,2.40
2018-06-28T21:41:37.451Z,3.30
2018-06-28T21:44:05.793Z,2.43
2018-06-28T21:46:35.564Z,3.43
2018-06-28T21:49:04.449Z,3.07
2018-06-28T21:51:34.218Z,1.80
2018-06-28T21:54:02.999Z,3.33
2018-06-28T21:56:31.712Z,2.57
2018-06-28T21:59:00.423Z,4.13
2018-06-28T22:01:29.214Z,2.37
2018-06-28T22:03:57.973Z,1.90
2018-06-28T22:06:26.717Z,1.90
2018-06-28T22:08:55.436Z,2.60
2018-06-28T22:11:24.146Z,3.87
2018-06-28T22:13:52.871Z,2.73
2018-06-28T22:16:21.201Z,3.23
2018-06-28T22:18:49.874Z,2.73
2018-06-28T22:21:18.578Z,2.63
2018-06-28T22:23:47.258Z,3.87
2018-06-28T22:26:16.049Z,3.57
2018-06-28T22:28:44.795Z,2.27
2018-06-28T22:31:13.102Z,3.23
2018-06-28T22:33:41.827Z,3.17
2018-06-28T22:36:10.551Z,3.47
2018-06-28T22:38:39.387Z,2.07
2018-06-28T22:41:08.132Z,2.17
2018-06-28T22:43:36.881Z,3.40
2018-06-28T22:46:05.627Z,1.70
2018-06-28T22:48:34.376Z,2.50
2018-06-28T22:51:03.102Z,3.00
2018-06-28T22:53:32.769Z,4.60
2018-06-28T22:56:01.411Z,4.77
2018-06-28T22:58:30.045Z,4.13
2018-06-28T23:00:58.711Z,2.37
2018-06-28T23:03:27.406Z,3.47
2018-06-28T23:05:56.265Z,3.17
2018-06-28T23:08:25.019Z,3.13
2018-06-28T23:10:53.749Z,4.10
2018-06-28T23:13:22.401Z,2.80
2018-06-28T23:15:51.187Z,4.00
2018-06-28T23:18:19.933Z,2.20
2018-06-28T23:20:48.254Z,2.60
2018-06-28T23:23:16.944Z,2.27
2018-06-28T23:25:45.642Z,2.53
2018-06-28T23:28:14.320Z,4.30
2018-06-28T23:30:42.984Z,2.00
2018-06-28T23:33:12.336Z,2.30
2018-06-28T23:35:40.968Z,4.17
2018-06-28T23:38:09.723Z,6.03
2018-06-28T23:40:38.460Z,2.87
2018-06-28T23:43:06.800Z,4.30
2018-06-28T23:45:35.507Z,2.30
2018-06-28T23:48:04.145Z,4.27
2018-06-28T23:50:32.822Z,2.13
2018-06-28T23:53:01.561Z,6.17
2018-06-28T23:55:30.295Z,3.00
2018-06-28T23:57:58.982Z,3.10
